sensor_id;sensor_type;location;lat;lon;timestamp;temperature;humidity
2130;DHT22;1071;52.544;13.374;2023-02-28T00:00:37;5.50;98.50
2130;DHT22;1071;52.544;13.374;2023-02-28T00:03:06;5.50;98.60
2130;DHT22;1071;52.544;13.374;2023-02-28T00:05:33;5.50;98.70
2130;DHT22;1071;52.544;13.374;2023-02-28T00:08:00;5.50;98.70
2130;DHT22;1071;52.544;13.374;2023-02-28T00:10:30;5.50;98.70
2130;DHT22;1071;52.544;13.374;2023-02-28T00:13:01;5.50;98.80
2130;DHT22;1071;52.544;13.374;2023-02-28T00:15:29;5.50;98.80
2130;DHT22;1071;52.544;13.374;2023-02-28T00:17:56;5.50;98.90
2130;DHT22;1071;52.544;13.374;2023-02-28T00:20:25;5.50;98.90
2130;DHT22;1071;52.544;13.374;2023-02-28T00:22:53;5.50;98.90
2130;DHT22;1071;52.544;13.374;2023-02-28T00:25:22;5.50;99.00
2130;DHT22;1071;52.544;13.374;2023-02-28T00:27:50;5.50;99.00
2130;DHT22;1071;52.544;13.374;2023-02-28T00:30:18;5.40;99.00
2130;DHT22;1071;52.544;13.374;2023-02-28T00:32:47;5.50;99.10
2130;DHT22;1071;52.544;13.374;2023-02-28T00:35:14;5.40;99.10
2130;DHT22;1071;52.544;13.374;2023-02-28T00:37:43;5.50;99.30
2130;DHT22;1071;52.544;13.374;2023-02-28T00:40:11;5.50;99.10
2130;DHT22;1071;52.544;13.374;2023-02-28T00:42:38;5.50;99.10
2130;DHT22;1071;52.544;13.374;2023-02-28T00:45:06;5.40;99.10
2130;DHT22;1071;52.544;13.374;2023-02-28T00:47:34;5.40;99.20
2130;DHT22;1071;52.544;13.374;2023-02-28T00:50:02;5.50;99.30
2130;DHT22;1071;52.544;13.374;2023-02-28T00:52:29;5.50;99.40
2130;DHT22;1071;52.544;13.374;2023-02-28T00:54:57;5.50;99.30
2130;DHT22;1071;52.544;13.374;2023-02-28T00:57:25;5.60;99.30
2130;DHT22;1071;52.544;13.374;2023-02-28T00:59:52;5.60;99.20
2130;DHT22;1071;52.544;13.374;2023-02-28T01:02:21;5.60;99.20
2130;DHT22;1071;52.544;13.374;2023-02-28T01:04:48;5.50;99.10
2130;DHT22;1071;52.544;13.374;2023-02-28T01:07:16;5.60;99.10
2130;DHT22;1071;52.544;13.374;2023-02-28T01:09:43;5.60;99.00
2130;DHT22;1071;52.544;13.374;2023-02-28T01:12:19;5.60;99.00
2130;DHT22;1071;52.544;13.374;2023-02-28T01:14:49;5.60;98.90
2130;DHT22;1071;52.544;13.374;2023-02-28T01:17:16;5.60;99.00
2130;DHT22;1071;52.544;13.374;2023-02-28T01:19:43;5.60;99.00
2130;DHT22;1071;52.544;13.374;2023-02-28T01:22:10;5.60;99.10
2130;DHT22;1071;52.544;13.374;2023-02-28T01:24:37;5.60;99.10
2130;DHT22;1071;52.544;13.374;2023-02-28T01:27:04;5.60;99.20
2130;DHT22;1071;52.544;13.374;2023-02-28T01:29:33;5.60;99.20
2130;DHT22;1071;52.544;13.374;2023-02-28T01:32:00;5.60;99.20
2130;DHT22;1071;52.544;13.374;2023-02-28T01:34:26;5.60;99.20
2130;DHT22;1071;52.544;13.374;2023-02-28T01:36:54;5.60;99.20
2130;DHT22;1071;52.544;13.374;2023-02-28T01:39:21;5.50;99.30
2130;DHT22;1071;52.544;13.374;2023-02-28T01:41:48;5.50;99.40
2130;DHT22;1071;52.544;13.374;2023-02-28T01:47:22;5.50;99.50
2130;DHT22;1071;52.544;13.374;2023-02-28T01:49:50;5.50;99.50
2130;DHT22;1071;52.544;13.374;2023-02-28T01:52:18;5.40;99.60
2130;DHT22;1071;52.544;13.374;2023-02-28T01:54:51;5.40;99.60
2130;DHT22;1071;52.544;13.374;2023-02-28T01:57:21;5.40;99.60
2130;DHT22;1071;52.544;13.374;2023-02-28T01:59:53;5.40;99.60
2130;DHT22;1071;52.544;13.374;2023-02-28T02:02:23;5.40;99.60
2130;DHT22;1071;52.544;13.374;2023-02-28T02:04:54;5.40;99.60
2130;DHT22;1071;52.544;13.374;2023-02-28T02:07:22;5.40;99.70
2130;DHT22;1071;52.544;13.374;2023-02-28T02:09:56;5.40;99.80
2130;DHT22;1071;52.544;13.374;2023-02-28T02:12:29;5.40;99.90
2130;DHT22;1071;52.544;13.374;2023-02-28T02:15:05;5.30;99.90
2130;DHT22;1071;52.544;13.374;2023-02-28T02:17:38;5.40;99.90
2130;DHT22;1071;52.544;13.374;2023-02-28T02:20:32;5.30;99.90
2130;DHT22;1071;52.544;13.374;2023-02-28T02:26:28;5.30;99.90
2130;DHT22;1071;52.544;13.374;2023-02-28T02:29:16;5.20;99.90
2130;DHT22;1071;52.544;13.374;2023-02-28T02:32:04;5.20;99.90
2130;DHT22;1071;52.544;13.374;2023-02-28T02:34:43;5.20;99.90
2130;DHT22;1071;52.544;13.374;2023-02-28T02:37:23;5.20;99.90
2130;DHT22;1071;52.544;13.374;2023-02-28T02:40:03;5.10;99.90
2130;DHT22;1071;52.544;13.374;2023-02-28T02:42:36;5.10;99.90
2130;DHT22;1071;52.544;13.374;2023-02-28T02:45:09;5.10;99.90
2130;DHT22;1071;52.544;13.374;2023-02-28T02:47:43;5.10;99.90
2130;DHT22;1071;52.544;13.374;2023-02-28T02:50:15;5.10;99.90
2130;DHT22;1071;52.544;13.374;2023-02-28T02:52:47;5.10;99.90
2130;DHT22;1071;52.544;13.374;2023-02-28T02:55:17;5.00;99.90
2130;DHT22;1071;52.544;13.374;2023-02-28T02:57:47;5.00;99.90
2130;DHT22;1071;52.544;13.374;2023-02-28T03:00:16;5.00;99.90
2130;DHT22;1071;52.544;13.374;2023-02-28T03:02:45;5.00;99.90
2130;DHT22;1071;52.544;13.374;2023-02-28T03:05:19;5.00;99.90
2130;DHT22;1071;52.544;13.374;2023-02-28T03:07:48;4.90;99.90
2130;DHT22;1071;52.544;13.374;2023-02-28T03:10:32;4.90;99.90
2130;DHT22;1071;52.544;13.374;2023-02-28T03:13:22;4.90;99.90
2130;DHT22;1071;52.544;13.374;2023-02-28T03:16:01;4.80;99.90
2130;DHT22;1071;52.544;13.374;2023-02-28T03:18:36;4.80;99.90
2130;DHT22;1071;52.544;13.374;2023-02-28T03:21:13;4.80;99.90
2130;DHT22;1071;52.544;13.374;2023-02-28T03:23:50;4.70;99.90
2130;DHT22;1071;52.544;13.374;2023-02-28T03:26:23;4.70;99.90
2130;DHT22;1071;52.544;13.374;2023-02-28T03:28:55;4.70;99.90
2130;DHT22;1071;52.544;13.374;2023-02-28T03:31:27;4.70;99.90
2130;DHT22;1071;52.544;13.374;2023-02-28T03:33:59;4.70;99.90
2130;DHT22;1071;52.544;13.374;2023-02-28T03:36:34;4.60;99.90
2130;DHT22;1071;52.544;13.374;2023-02-28T03:39:13;4.60;99.90
2130;DHT22;1071;52.544;13.374;2023-02-28T03:41:42;4.60;99.90
2130;DHT22;1071;52.544;13.374;2023-02-28T03:44:16;4.60;99.90
2130;DHT22;1071;52.544;13.374;2023-02-28T03:46:48;4.60;99.90
2130;DHT22;1071;52.544;13.374;2023-02-28T03:49:21;4.60;99.90
2130;DHT22;1071;52.544;13.374;2023-02-28T03:51:51;4.60;99.90
2130;DHT22;1071;52.544;13.374;2023-02-28T03:54:22;4.60;99.90
2130;DHT22;1071;52.544;13.374;2023-02-28T03:57:02;4.50;99.90
2130;DHT22;1071;52.544;13.374;2023-02-28T03:59:35;4.50;99.90
2130;DHT22;1071;52.544;13.374;2023-02-28T04:02:04;4.50;99.90
2130;DHT22;1071;52.544;13.374;2023-02-28T04:04:31;4.50;99.90
2130;DHT22;1071;52.544;13.374;2023-02-28T04:07:08;4.50;99.90
2130;DHT22;1071;52.544;13.374;2023-02-28T04:09:35;4.40;99.90
2130;DHT22;1071;52.544;13.374;2023-02-28T04:12:02;4.40;99.90
2130;DHT22;1071;52.544;13.374;2023-02-28T04:14:30;4.40;99.90
2130;DHT22;1071;52.544;13.374;2023-02-28T04:16:56;4.40;99.90
2130;DHT22;1071;52.544;13.374;2023-02-28T04:19:23;4.40;99.90
2130;DHT22;1071;52.544;13.374;2023-02-28T04:21:52;4.40;99.90
2130;DHT22;1071;52.544;13.374;2023-02-28T04:24:23;4.50;99.90
2130;DHT22;1071;52.544;13.374;2023-02-28T04:26:52;4.40;99.90
2130;DHT22;1071;52.544;13.374;2023-02-28T04:29:22;4.40;99.90
2130;DHT22;1071;52.544;13.374;2023-02-28T04:31:49;4.40;99.90
2130;DHT22;1071;52.544;13.374;2023-02-28T04:34:17;4.40;99.90
2130;DHT22;1071;52.544;13.374;2023-02-28T04:36:44;4.40;99.90
2130;DHT22;1071;52.544;13.374;2023-02-28T04:39:14;4.40;99.90
2130;DHT22;1071;52.544;13.374;2023-02-28T04:41:45;4.30;99.90
2130;DHT22;1071;52.544;13.374;2023-02-28T04:44:12;4.40;99.90
2130;DHT22;1071;52.544;13.374;2023-02-28T04:46:40;4.30;99.90
2130;DHT22;1071;52.544;13.374;2023-02-28T04:49:11;4.30;99.90
2130;DHT22;1071;52.544;13.374;2023-02-28T04:51:38;4.20;99.90
2130;DHT22;1071;52.544;13.374;2023-02-28T04:54:06;4.20;99.90
2130;DHT22;1071;52.544;13.374;2023-02-28T04:56:33;4.20;99.90
2130;DHT22;1071;52.544;13.374;2023-02-28T04:59:02;4.20;99.90
2130;DHT22;1071;52.544;13.374;2023-02-28T05:01:31;4.10;99.90
2130;DHT22;1071;52.544;13.374;2023-02-28T05:04:01;4.20;99.90
2130;DHT22;1071;52.544;13.374;2023-02-28T05:06:31;4.20;99.90
2130;DHT22;1071;52.544;13.374;2023-02-28T05:08:59;4.10;99.90
2130;DHT22;1071;52.544;13.374;2023-02-28T05:11:28;4.20;99.90
2130;DHT22;1071;52.544;13.374;2023-02-28T05:14:01;4.10;99.90
2130;DHT22;1071;52.544;13.374;2023-02-28T05:16:29;4.10;99.90
2130;DHT22;1071;52.544;13.374;2023-02-28T05:18:56;4.10;99.90
2130;DHT22;1071;52.544;13.374;2023-02-28T05:21:27;4.10;99.90
2130;DHT22;1071;52.544;13.374;2023-02-28T05:23:55;4.10;99.90
2130;DHT22;1071;52.544;13.374;2023-02-28T05:26:22;4.00;99.90
2130;DHT22;1071;52.544;13.374;2023-02-28T05:28:49;4.10;99.90
2130;DHT22;1071;52.544;13.374;2023-02-28T05:31:18;4.10;99.90
2130;DHT22;1071;52.544;13.374;2023-02-28T05:33:45;4.00;99.90
2130;DHT22;1071;52.544;13.374;2023-02-28T05:36:12;4.00;99.90
2130;DHT22;1071;52.544;13.374;2023-02-28T05:38:39;4.00;99.90
2130;DHT22;1071;52.544;13.374;2023-02-28T05:41:07;4.00;99.90
2130;DHT22;1071;52.544;13.374;2023-02-28T05:43:38;4.00;99.90
2130;DHT22;1071;52.544;13.374;2023-02-28T05:46:07;4.00;99.90
2130;DHT22;1071;52.544;13.374;2023-02-28T05:48:37;4.00;99.90
2130;DHT22;1071;52.544;13.374;2023-02-28T05:51:05;4.00;99.90
2130;DHT22;1071;52.544;13.374;2023-02-28T05:53:33;4.00;99.90
2130;DHT22;1071;52.544;13.374;2023-02-28T05:56:00;3.90;99.90
2130;DHT22;1071;52.544;13.374;2023-02-28T05:58:28;3.90;99.90
2130;DHT22;1071;52.544;13.374;2023-02-28T06:00:56;3.90;99.90
2130;DHT22;1071;52.544;13.374;2023-02-28T06:03:23;3.90;99.90
2130;DHT22;1071;52.544;13.374;2023-02-28T06:05:52;3.90;99.90
2130;DHT22;1071;52.544;13.374;2023-02-28T06:08:19;3.90;99.90
2130;DHT22;1071;52.544;13.374;2023-02-28T06:10:46;3.90;99.90
2130;DHT22;1071;52.544;13.374;2023-02-28T06:13:13;3.90;99.90
2130;DHT22;1071;52.544;13.374;2023-02-28T06:15:40;3.90;99.90
2130;DHT22;1071;52.544;13.374;2023-02-28T06:18:07;3.90;99.90
2130;DHT22;1071;52.544;13.374;2023-02-28T06:20:34;3.90;99.90
2130;DHT22;1071;52.544;13.374;2023-02-28T06:23:03;3.90;99.90
2130;DHT22;1071;52.544;13.374;2023-02-28T06:25:30;3.90;99.90
2130;DHT22;1071;52.544;13.374;2023-02-28T06:27:57;3.90;99.90
2130;DHT22;1071;52.544;13.374;2023-02-28T06:30:24;3.90;99.90
2130;DHT22;1071;52.544;13.374;2023-02-28T06:32:53;3.80;99.90
2130;DHT22;1071;52.544;13.374;2023-02-28T06:35:21;3.90;99.90
2130;DHT22;1071;52.544;13.374;2023-02-28T06:37:48;3.90;99.90
2130;DHT22;1071;52.544;13.374;2023-02-28T06:40:17;3.90;99.90
2130;DHT22;1071;52.544;13.374;2023-02-28T06:42:44;3.90;99.90
2130;DHT22;1071;52.544;13.374;2023-02-28T06:45:11;3.90;99.90
2130;DHT22;1071;52.544;13.374;2023-02-28T06:47:40;3.90;99.90
2130;DHT22;1071;52.544;13.374;2023-02-28T06:50:11;3.90;99.90
2130;DHT22;1071;52.544;13.374;2023-02-28T06:52:39;3.90;99.90
2130;DHT22;1071;52.544;13.374;2023-02-28T06:55:07;3.90;99.90
2130;DHT22;1071;52.544;13.374;2023-02-28T06:57:36;3.90;99.90
2130;DHT22;1071;52.544;13.374;2023-02-28T07:00:06;4.00;99.90
2130;DHT22;1071;52.544;13.374;2023-02-28T07:02:33;4.00;99.90
2130;DHT22;1071;52.544;13.374;2023-02-28T07:05:00;4.00;99.90
2130;DHT22;1071;52.544;13.374;2023-02-28T07:07:30;4.10;99.90
2130;DHT22;1071;52.544;13.374;2023-02-28T07:09:57;4.10;99.90
2130;DHT22;1071;52.544;13.374;2023-02-28T07:12:24;4.10;99.90
2130;DHT22;1071;52.544;13.374;2023-02-28T07:14:53;4.10;99.90
2130;DHT22;1071;52.544;13.374;2023-02-28T07:17:21;4.10;99.90
2130;DHT22;1071;52.544;13.374;2023-02-28T07:19:48;4.10;99.90
2130;DHT22;1071;52.544;13.374;2023-02-28T07:22:15;4.20;99.90
2130;DHT22;1071;52.544;13.374;2023-02-28T07:24:42;4.20;99.90
2130;DHT22;1071;52.544;13.374;2023-02-28T07:27:09;4.30;99.90
2130;DHT22;1071;52.544;13.374;2023-02-28T07:29:36;4.30;99.90
2130;DHT22;1071;52.544;13.374;2023-02-28T07:32:05;4.30;99.90
2130;DHT22;1071;52.544;13.374;2023-02-28T07:34:32;4.40;99.90
2130;DHT22;1071;52.544;13.374;2023-02-28T07:37:02;4.40;99.90
2130;DHT22;1071;52.544;13.374;2023-02-28T07:39:31;4.50;99.90
2130;DHT22;1071;52.544;13.374;2023-02-28T07:41:58;4.50;99.90
2130;DHT22;1071;52.544;13.374;2023-02-28T07:44:26;4.50;99.90
2130;DHT22;1071;52.544;13.374;2023-02-28T07:46:53;4.60;99.90
2130;DHT22;1071;52.544;13.374;2023-02-28T07:49:24;4.60;99.90
2130;DHT22;1071;52.544;13.374;2023-02-28T07:51:51;4.60;99.90
2130;DHT22;1071;52.544;13.374;2023-02-28T07:54:19;4.70;99.90
2130;DHT22;1071;52.544;13.374;2023-02-28T07:56:46;4.70;99.90
2130;DHT22;1071;52.544;13.374;2023-02-28T07:59:14;4.80;99.90
2130;DHT22;1071;52.544;13.374;2023-02-28T08:01:41;4.80;99.90
2130;DHT22;1071;52.544;13.374;2023-02-28T08:04:10;4.90;99.90
2130;DHT22;1071;52.544;13.374;2023-02-28T08:06:38;4.90;99.90
2130;DHT22;1071;52.544;13.374;2023-02-28T08:09:07;5.00;99.90
2130;DHT22;1071;52.544;13.374;2023-02-28T08:11:37;5.00;99.90
2130;DHT22;1071;52.544;13.374;2023-02-28T08:14:04;5.10;99.90
2130;DHT22;1071;52.544;13.374;2023-02-28T08:16:33;5.10;99.90
2130;DHT22;1071;52.544;13.374;2023-02-28T08:19:02;5.20;99.90
2130;DHT22;1071;52.544;13.374;2023-02-28T08:21:29;5.20;99.90
2130;DHT22;1071;52.544;13.374;2023-02-28T08:24:01;5.30;99.90
2130;DHT22;1071;52.544;13.374;2023-02-28T08:26:28;5.40;99.90
2130;DHT22;1071;52.544;13.374;2023-02-28T08:28:57;5.40;99.90
2130;DHT22;1071;52.544;13.374;2023-02-28T08:31:27;5.50;99.20
2130;DHT22;1071;52.544;13.374;2023-02-28T08:33:57;5.50;97.90
2130;DHT22;1071;52.544;13.374;2023-02-28T08:36:26;5.60;96.70
2130;DHT22;1071;52.544;13.374;2023-02-28T08:38:54;5.60;94.30
2130;DHT22;1071;52.544;13.374;2023-02-28T08:41:22;5.70;93.80
2130;DHT22;1071;52.544;13.374;2023-02-28T08:43:53;5.80;93.40
2130;DHT22;1071;52.544;13.374;2023-02-28T08:46:20;5.80;93.30
2130;DHT22;1071;52.544;13.374;2023-02-28T08:48:51;5.90;92.80
2130;DHT22;1071;52.544;13.374;2023-02-28T08:51:18;5.90;90.50
2130;DHT22;1071;52.544;13.374;2023-02-28T08:53:51;6.00;89.70
2130;DHT22;1071;52.544;13.374;2023-02-28T08:56:20;6.00;89.10
2130;DHT22;1071;52.544;13.374;2023-02-28T08:58:49;6.10;88.70
2130;DHT22;1071;52.544;13.374;2023-02-28T09:01:18;6.10;88.30
2130;DHT22;1071;52.544;13.374;2023-02-28T09:03:46;6.20;87.90
2130;DHT22;1071;52.544;13.374;2023-02-28T09:06:14;6.10;81.90
2130;DHT22;1071;52.544;13.374;2023-02-28T09:08:51;6.20;81.60
2130;DHT22;1071;52.544;13.374;2023-02-28T09:11:18;6.20;81.60
2130;DHT22;1071;52.544;13.374;2023-02-28T09:13:50;6.30;81.10
2130;DHT22;1071;52.544;13.374;2023-02-28T09:16:18;6.30;80.10
2130;DHT22;1071;52.544;13.374;2023-02-28T09:18:45;6.30;76.80
2130;DHT22;1071;52.544;13.374;2023-02-28T09:21:14;6.30;76.60
2130;DHT22;1071;52.544;13.374;2023-02-28T09:23:46;6.40;76.20
2130;DHT22;1071;52.544;13.374;2023-02-28T09:26:14;6.40;75.60
2130;DHT22;1071;52.544;13.374;2023-02-28T09:28:42;6.40;75.40
2130;DHT22;1071;52.544;13.374;2023-02-28T09:31:13;6.40;74.70
2130;DHT22;1071;52.544;13.374;2023-02-28T09:33:43;6.40;75.10
2130;DHT22;1071;52.544;13.374;2023-02-28T09:36:11;6.50;75.50
2130;DHT22;1071;52.544;13.374;2023-02-28T09:38:38;6.50;75.60
2130;DHT22;1071;52.544;13.374;2023-02-28T09:41:14;6.60;76.20
2130;DHT22;1071;52.544;13.374;2023-02-28T09:43:46;6.60;75.90
2130;DHT22;1071;52.544;13.374;2023-02-28T09:46:30;6.60;75.10
2130;DHT22;1071;52.544;13.374;2023-02-28T09:49:01;6.60;73.30
2130;DHT22;1071;52.544;13.374;2023-02-28T09:51:40;6.50;73.30
2130;DHT22;1071;52.544;13.374;2023-02-28T09:54:14;6.60;73.40
2130;DHT22;1071;52.544;13.374;2023-02-28T09:56:45;6.60;73.10
2130;DHT22;1071;52.544;13.374;2023-02-28T09:59:18;6.70;73.40
2130;DHT22;1071;52.544;13.374;2023-02-28T10:01:54;6.70;73.70
2130;DHT22;1071;52.544;13.374;2023-02-28T10:04:38;6.70;74.00
2130;DHT22;1071;52.544;13.374;2023-02-28T10:07:21;6.80;75.20
2130;DHT22;1071;52.544;13.374;2023-02-28T10:09:53;6.80;75.00
2130;DHT22;1071;52.544;13.374;2023-02-28T10:15:27;6.90;75.40
2130;DHT22;1071;52.544;13.374;2023-02-28T10:18:00;6.90;74.60
2130;DHT22;1071;52.544;13.374;2023-02-28T10:20:30;6.90;73.60
2130;DHT22;1071;52.544;13.374;2023-02-28T10:23:03;6.90;73.30
2130;DHT22;1071;52.544;13.374;2023-02-28T10:25:34;6.90;72.10
2130;DHT22;1071;52.544;13.374;2023-02-28T10:28:10;6.90;72.40
2130;DHT22;1071;52.544;13.374;2023-02-28T10:30:42;6.90;72.60
2130;DHT22;1071;52.544;13.374;2023-02-28T10:33:19;6.90;71.20
2130;DHT22;1071;52.544;13.374;2023-02-28T10:35:48;6.90;71.80
2130;DHT22;1071;52.544;13.374;2023-02-28T10:38:18;7.00;72.40
2130;DHT22;1071;52.544;13.374;2023-02-28T10:40:45;7.00;72.00
2130;DHT22;1071;52.544;13.374;2023-02-28T10:43:21;7.10;70.60
2130;DHT22;1071;52.544;13.374;2023-02-28T10:45:58;7.00;70.10
2130;DHT22;1071;52.544;13.374;2023-02-28T10:48:33;7.10;70.60
2130;DHT22;1071;52.544;13.374;2023-02-28T10:51:01;7.00;70.80
2130;DHT22;1071;52.544;13.374;2023-02-28T10:53:32;7.10;71.00
2130;DHT22;1071;52.544;13.374;2023-02-28T10:56:02;7.10;70.90
2130;DHT22;1071;52.544;13.374;2023-02-28T10:58:31;7.20;71.10
2130;DHT22;1071;52.544;13.374;2023-02-28T11:00:59;7.10;69.50
2130;DHT22;1071;52.544;13.374;2023-02-28T11:03:33;7.10;70.50
2130;DHT22;1071;52.544;13.374;2023-02-28T11:06:06;7.10;71.50
2130;DHT22;1071;52.544;13.374;2023-02-28T11:08:45;7.10;71.20
2130;DHT22;1071;52.544;13.374;2023-02-28T11:11:12;7.20;70.70
2130;DHT22;1071;52.544;13.374;2023-02-28T11:13:41;7.20;69.70
2130;DHT22;1071;52.544;13.374;2023-02-28T11:16:10;7.20;70.00
2130;DHT22;1071;52.544;13.374;2023-02-28T11:18:42;7.10;69.40
2130;DHT22;1071;52.544;13.374;2023-02-28T11:24:51;7.20;69.50
2130;DHT22;1071;52.544;13.374;2023-02-28T11:27:43;7.20;69.20
2130;DHT22;1071;52.544;13.374;2023-02-28T11:30:27;7.20;69.50
2130;DHT22;1071;52.544;13.374;2023-02-28T11:32:55;7.30;69.70
2130;DHT22;1071;52.544;13.374;2023-02-28T11:35:27;7.40;69.90
2130;DHT22;1071;52.544;13.374;2023-02-28T11:37:55;7.40;69.80
2130;DHT22;1071;52.544;13.374;2023-02-28T11:40:29;7.40;69.50
2130;DHT22;1071;52.544;13.374;2023-02-28T11:43:05;7.30;69.60
2130;DHT22;1071;52.544;13.374;2023-02-28T11:45:48;7.40;69.40
2130;DHT22;1071;52.544;13.374;2023-02-28T11:48:25;7.40;70.20
2130;DHT22;1071;52.544;13.374;2023-02-28T11:51:03;7.40;68.90
2130;DHT22;1071;52.544;13.374;2023-02-28T11:53:44;7.40;69.40
2130;DHT22;1071;52.544;13.374;2023-02-28T11:56:22;7.50;69.50
2130;DHT22;1071;52.544;13.374;2023-02-28T11:58:59;7.50;69.30
2130;DHT22;1071;52.544;13.374;2023-02-28T12:01:38;7.60;69.30
2130;DHT22;1071;52.544;13.374;2023-02-28T12:04:24;7.60;69.30
2130;DHT22;1071;52.544;13.374;2023-02-28T12:06:59;7.60;68.90
2130;DHT22;1071;52.544;13.374;2023-02-28T12:09:43;7.70;68.70
2130;DHT22;1071;52.544;13.374;2023-02-28T12:12:23;7.70;68.80
2130;DHT22;1071;52.544;13.374;2023-02-28T12:15:11;7.70;68.50
2130;DHT22;1071;52.544;13.374;2023-02-28T12:17:50;7.70;68.30
2130;DHT22;1071;52.544;13.374;2023-02-28T12:20:25;7.70;68.00
2130;DHT22;1071;52.544;13.374;2023-02-28T12:23:04;7.70;68.20
2130;DHT22;1071;52.544;13.374;2023-02-28T12:25:56;7.80;67.60
2130;DHT22;1071;52.544;13.374;2023-02-28T12:28:33;7.70;68.60
2130;DHT22;1071;52.544;13.374;2023-02-28T12:31:05;7.60;67.20
2130;DHT22;1071;52.544;13.374;2023-02-28T12:33:38;7.60;67.70
2130;DHT22;1071;52.544;13.374;2023-02-28T12:36:11;7.60;67.80
2130;DHT22;1071;52.544;13.374;2023-02-28T12:38:48;7.60;68.20
2130;DHT22;1071;52.544;13.374;2023-02-28T12:41:18;7.60;69.10
2130;DHT22;1071;52.544;13.374;2023-02-28T12:43:48;7.70;69.50
2130;DHT22;1071;52.544;13.374;2023-02-28T12:46:21;7.70;69.20
2130;DHT22;1071;52.544;13.374;2023-02-28T12:48:54;7.70;67.90
2130;DHT22;1071;52.544;13.374;2023-02-28T12:51:24;7.70;68.30
2130;DHT22;1071;52.544;13.374;2023-02-28T12:54:04;7.70;68.50
2130;DHT22;1071;52.544;13.374;2023-02-28T12:56:42;7.70;67.80
2130;DHT22;1071;52.544;13.374;2023-02-28T12:59:14;7.70;67.10
2130;DHT22;1071;52.544;13.374;2023-02-28T13:02:21;7.80;67.70
2130;DHT22;1071;52.544;13.374;2023-02-28T13:05:10;7.80;67.70
2130;DHT22;1071;52.544;13.374;2023-02-28T13:10:43;7.90;67.30
2130;DHT22;1071;52.544;13.374;2023-02-28T13:13:19;7.90;67.00
2130;DHT22;1071;52.544;13.374;2023-02-28T13:15:59;7.90;66.10
2130;DHT22;1071;52.544;13.374;2023-02-28T13:18:29;7.80;64.60
2130;DHT22;1071;52.544;13.374;2023-02-28T13:20:57;7.70;65.40
2130;DHT22;1071;52.544;13.374;2023-02-28T13:23:41;7.70;65.80
2130;DHT22;1071;52.544;13.374;2023-02-28T13:29:31;7.70;66.50
2130;DHT22;1071;52.544;13.374;2023-02-28T13:32:32;7.70;67.00
2130;DHT22;1071;52.544;13.374;2023-02-28T13:44:03;7.90;68.60
2130;DHT22;1071;52.544;13.374;2023-02-28T13:46:36;7.90;69.10
2130;DHT22;1071;52.544;13.374;2023-02-28T13:49:20;7.90;68.80
2130;DHT22;1071;52.544;13.374;2023-02-28T13:51:48;8.00;69.10
2130;DHT22;1071;52.544;13.374;2023-02-28T13:54:33;8.00;68.90
2130;DHT22;1071;52.544;13.374;2023-02-28T13:57:17;8.00;68.90
2130;DHT22;1071;52.544;13.374;2023-02-28T13:59:53;8.10;69.10
2130;DHT22;1071;52.544;13.374;2023-02-28T14:02:47;8.10;69.30
2130;DHT22;1071;52.544;13.374;2023-02-28T14:05:20;8.10;69.60
2130;DHT22;1071;52.544;13.374;2023-02-28T14:07:54;8.10;69.00
2130;DHT22;1071;52.544;13.374;2023-02-28T14:10:29;8.10;68.20
2130;DHT22;1071;52.544;13.374;2023-02-28T14:13:04;8.10;68.50
2130;DHT22;1071;52.544;13.374;2023-02-28T14:15:45;8.10;68.20
2130;DHT22;1071;52.544;13.374;2023-02-28T14:18:24;8.00;67.70
2130;DHT22;1071;52.544;13.374;2023-02-28T14:20:54;8.00;68.30
2130;DHT22;1071;52.544;13.374;2023-02-28T14:23:35;7.90;67.30
2130;DHT22;1071;52.544;13.374;2023-02-28T14:26:16;8.00;67.40
2130;DHT22;1071;52.544;13.374;2023-02-28T14:28:55;8.00;67.60
2130;DHT22;1071;52.544;13.374;2023-02-28T14:31:33;8.00;67.40
2130;DHT22;1071;52.544;13.374;2023-02-28T14:34:17;8.00;68.40
2130;DHT22;1071;52.544;13.374;2023-02-28T14:36:53;8.00;67.70
2130;DHT22;1071;52.544;13.374;2023-02-28T14:39:22;7.90;66.80
2130;DHT22;1071;52.544;13.374;2023-02-28T14:41:50;7.90;67.30
2130;DHT22;1071;52.544;13.374;2023-02-28T14:44:20;7.90;67.70
2130;DHT22;1071;52.544;13.374;2023-02-28T14:46:50;7.90;68.00
2130;DHT22;1071;52.544;13.374;2023-02-28T14:49:21;7.90;68.20
2130;DHT22;1071;52.544;13.374;2023-02-28T14:51:49;7.90;68.30
2130;DHT22;1071;52.544;13.374;2023-02-28T14:54:20;8.00;68.40
2130;DHT22;1071;52.544;13.374;2023-02-28T14:56:50;8.00;68.60
2130;DHT22;1071;52.544;13.374;2023-02-28T14:59:25;8.00;68.50
2130;DHT22;1071;52.544;13.374;2023-02-28T15:02:14;8.00;68.40
2130;DHT22;1071;52.544;13.374;2023-02-28T15:04:41;8.00;67.80
2130;DHT22;1071;52.544;13.374;2023-02-28T15:07:10;8.00;68.00
2130;DHT22;1071;52.544;13.374;2023-02-28T15:09:37;8.00;68.00
2130;DHT22;1071;52.544;13.374;2023-02-28T15:12:05;7.90;67.70
2130;DHT22;1071;52.544;13.374;2023-02-28T15:14:34;7.90;68.30
2130;DHT22;1071;52.544;13.374;2023-02-28T15:17:08;7.90;68.90
2130;DHT22;1071;52.544;13.374;2023-02-28T15:19:43;7.90;68.80
2130;DHT22;1071;52.544;13.374;2023-02-28T15:22:14;7.90;68.90
2130;DHT22;1071;52.544;13.374;2023-02-28T15:24:44;7.90;68.80
2130;DHT22;1071;52.544;13.374;2023-02-28T15:27:21;7.80;68.90
2130;DHT22;1071;52.544;13.374;2023-02-28T15:29:50;7.90;69.20
2130;DHT22;1071;52.544;13.374;2023-02-28T15:32:28;7.90;69.30
2130;DHT22;1071;52.544;13.374;2023-02-28T15:34:56;7.80;69.00
2130;DHT22;1071;52.544;13.374;2023-02-28T15:37:29;7.80;69.50
2130;DHT22;1071;52.544;13.374;2023-02-28T15:39:58;7.80;69.50
2130;DHT22;1071;52.544;13.374;2023-02-28T15:42:31;7.80;69.50
2130;DHT22;1071;52.544;13.374;2023-02-28T15:44:58;7.80;69.00
2130;DHT22;1071;52.544;13.374;2023-02-28T15:47:29;7.80;69.10
2130;DHT22;1071;52.544;13.374;2023-02-28T15:49:59;7.80;69.30
2130;DHT22;1071;52.544;13.374;2023-02-28T15:52:33;7.80;69.10
2130;DHT22;1071;52.544;13.374;2023-02-28T15:55:09;7.80;68.70
2130;DHT22;1071;52.544;13.374;2023-02-28T15:57:39;7.80;68.90
2130;DHT22;1071;52.544;13.374;2023-02-28T16:00:12;7.90;69.30
2130;DHT22;1071;52.544;13.374;2023-02-28T16:02:41;7.80;69.50
2130;DHT22;1071;52.544;13.374;2023-02-28T16:05:23;7.80;69.90
2130;DHT22;1071;52.544;13.374;2023-02-28T16:07:54;7.80;70.00
2130;DHT22;1071;52.544;13.374;2023-02-28T16:10:23;7.80;69.80
2130;DHT22;1071;52.544;13.374;2023-02-28T16:12:53;7.80;70.10
2130;DHT22;1071;52.544;13.374;2023-02-28T16:15:22;7.80;70.50
2130;DHT22;1071;52.544;13.374;2023-02-28T16:17:56;7.80;70.90
2130;DHT22;1071;52.544;13.374;2023-02-28T16:20:26;7.80;71.10
2130;DHT22;1071;52.544;13.374;2023-02-28T16:22:55;7.80;71.30
2130;DHT22;1071;52.544;13.374;2023-02-28T16:25:33;7.70;71.40
2130;DHT22;1071;52.544;13.374;2023-02-28T16:28:02;7.70;71.10
2130;DHT22;1071;52.544;13.374;2023-02-28T16:30:29;7.70;71.00
2130;DHT22;1071;52.544;13.374;2023-02-28T16:32:59;7.70;71.00
2130;DHT22;1071;52.544;13.374;2023-02-28T16:35:26;7.70;71.20
2130;DHT22;1071;52.544;13.374;2023-02-28T16:37:54;7.70;71.50
2130;DHT22;1071;52.544;13.374;2023-02-28T16:40:23;7.70;71.70
2130;DHT22;1071;52.544;13.374;2023-02-28T16:42:52;7.70;71.80
2130;DHT22;1071;52.544;13.374;2023-02-28T16:45:22;7.70;71.60
2130;DHT22;1071;52.544;13.374;2023-02-28T16:47:51;7.70;71.70
2130;DHT22;1071;52.544;13.374;2023-02-28T16:50:25;7.70;72.00
2130;DHT22;1071;52.544;13.374;2023-02-28T16:52:53;7.60;71.90
2130;DHT22;1071;52.544;13.374;2023-02-28T16:55:21;7.60;71.70
2130;DHT22;1071;52.544;13.374;2023-02-28T16:57:51;7.60;72.10